Smartville, California
Current Conditions -  °F | °C
As of 1:09 PM on Friday 19 Dec 2014 (Local Time) from KBAB Reporting Station
Drizzle Drizzle  
Wind Chill: 54°   Ceiling: 4400
Heat Index: 54°   Visibility: 5mi
Dew Point: 52°   Wind: 8mph
Humidity: 94%   Direction: 150°SSE
Pressure: 30.14"   Gusts: NA
Location:  39.21°N, 121.3°W
Report Text: KBAB 192109Z 15007KT 5SM -DZ BR SCT025 BKN044 OVC055 12/11 A3014
Loading
Personal Weather Stations






























Interactive Weather Map New forecast layout! Learn more

10-Day Weather Forecast

Advertisements
Track Severe Weather on mobile